sensor_id;sensor_type;location;lat;lon;timestamp;P1;durP1;ratioP1;P2;durP2;ratioP2
7971;SDS011;4031;49.758;6.120;2023-04-24T00:00:15;1.13;;;1.10;;
7971;SDS011;4031;49.758;6.120;2023-04-24T00:02:42;1.30;;;1.20;;
7971;SDS011;4031;49.758;6.120;2023-04-24T00:05:13;1.37;;;1.27;;
7971;SDS011;4031;49.758;6.120;2023-04-24T00:07:43;1.77;;;1.67;;
7971;SDS011;4031;49.758;6.120;2023-04-24T00:10:10;1.93;;;1.83;;
7971;SDS011;4031;49.758;6.120;2023-04-24T00:12:36;2.30;;;1.97;;
7971;SDS011;4031;49.758;6.120;2023-04-24T00:15:03;2.10;;;1.90;;
7971;SDS011;4031;49.758;6.120;2023-04-24T00:17:30;5.23;;;2.20;;
7971;SDS011;4031;49.758;6.120;2023-04-24T00:19:56;2.77;;;2.57;;
7971;SDS011;4031;49.758;6.120;2023-04-24T00:22:30;1.80;;;1.70;;
7971;SDS011;4031;49.758;6.120;2023-04-24T00:24:56;2.60;;;2.40;;
7971;SDS011;4031;49.758;6.120;2023-04-24T00:27:22;2.57;;;2.37;;
7971;SDS011;4031;49.758;6.120;2023-04-24T00:29:48;2.20;;;2.00;;
7971;SDS011;4031;49.758;6.120;2023-04-24T00:32:14;2.33;;;2.13;;
7971;SDS011;4031;49.758;6.120;2023-04-24T00:34:40;2.77;;;2.57;;
7971;SDS011;4031;49.758;6.120;2023-04-24T00:37:06;2.53;;;2.33;;
7971;SDS011;4031;49.758;6.120;2023-04-24T00:39:32;5.43;;;3.37;;
7971;SDS011;4031;49.758;6.120;2023-04-24T00:41:58;2.50;;;2.40;;
7971;SDS011;4031;49.758;6.120;2023-04-24T00:44:24;4.80;;;2.90;;
7971;SDS011;4031;49.758;6.120;2023-04-24T00:46:50;3.00;;;2.67;;
7971;SDS011;4031;49.758;6.120;2023-04-24T00:49:19;4.03;;;3.53;;
7971;SDS011;4031;49.758;6.120;2023-04-24T00:51:46;3.00;;;2.70;;
7971;SDS011;4031;49.758;6.120;2023-04-24T00:54:15;3.63;;;3.33;;
7971;SDS011;4031;49.758;6.120;2023-04-24T00:56:41;4.00;;;3.17;;
7971;SDS011;4031;49.758;6.120;2023-04-24T00:59:08;4.53;;;4.13;;
7971;SDS011;4031;49.758;6.120;2023-04-24T01:01:35;4.80;;;3.60;;
7971;SDS011;4031;49.758;6.120;2023-04-24T01:04:01;3.63;;;3.33;;
7971;SDS011;4031;49.758;6.120;2023-04-24T01:06:28;3.33;;;3.00;;
7971;SDS011;4031;49.758;6.120;2023-04-24T01:08:56;3.93;;;3.50;;
7971;SDS011;4031;49.758;6.120;2023-04-24T01:11:25;4.43;;;3.17;;
7971;SDS011;4031;49.758;6.120;2023-04-24T01:13:51;4.90;;;2.83;;
7971;SDS011;4031;49.758;6.120;2023-04-24T01:16:18;5.13;;;4.00;;
7971;SDS011;4031;49.758;6.120;2023-04-24T01:18:45;4.00;;;3.50;;
7971;SDS011;4031;49.758;6.120;2023-04-24T01:21:13;4.00;;;3.60;;
7971;SDS011;4031;49.758;6.120;2023-04-24T01:23:41;5.73;;;4.73;;
7971;SDS011;4031;49.758;6.120;2023-04-24T01:26:09;4.40;;;4.00;;
7971;SDS011;4031;49.758;6.120;2023-04-24T01:28:34;4.97;;;4.00;;
7971;SDS011;4031;49.758;6.120;2023-04-24T01:31:01;5.07;;;4.20;;
7971;SDS011;4031;49.758;6.120;2023-04-24T01:33:26;4.80;;;4.03;;
7971;SDS011;4031;49.758;6.120;2023-04-24T01:35:52;7.23;;;4.23;;
7971;SDS011;4031;49.758;6.120;2023-04-24T01:38:18;7.00;;;4.80;;
7971;SDS011;4031;49.758;6.120;2023-04-24T01:40:44;4.80;;;4.40;;
7971;SDS011;4031;49.758;6.120;2023-04-24T01:43:11;3.57;;;3.20;;
7971;SDS011;4031;49.758;6.120;2023-04-24T01:45:38;4.83;;;3.90;;
7971;SDS011;4031;49.758;6.120;2023-04-24T01:48:04;8.37;;;5.20;;
7971;SDS011;4031;49.758;6.120;2023-04-24T01:50:30;6.03;;;4.60;;
7971;SDS011;4031;49.758;6.120;2023-04-24T01:52:55;5.80;;;4.27;;
7971;SDS011;4031;49.758;6.120;2023-04-24T01:55:21;6.13;;;4.90;;
7971;SDS011;4031;49.758;6.120;2023-04-24T01:57:47;10.90;;;5.60;;
7971;SDS011;4031;49.758;6.120;2023-04-24T02:00:13;7.30;;;5.20;;
7971;SDS011;4031;49.758;6.120;2023-04-24T02:02:39;7.07;;;4.93;;
7971;SDS011;4031;49.758;6.120;2023-04-24T02:05:06;6.80;;;5.83;;
7971;SDS011;4031;49.758;6.120;2023-04-24T02:07:33;7.17;;;5.63;;
7971;SDS011;4031;49.758;6.120;2023-04-24T02:09:59;7.00;;;5.60;;
7971;SDS011;4031;49.758;6.120;2023-04-24T02:12:24;7.73;;;6.93;;
7971;SDS011;4031;49.758;6.120;2023-04-24T02:14:50;7.33;;;6.00;;
7971;SDS011;4031;49.758;6.120;2023-04-24T02:17:17;6.73;;;5.67;;
7971;SDS011;4031;49.758;6.120;2023-04-24T02:19:44;7.20;;;5.40;;
7971;SDS011;4031;49.758;6.120;2023-04-24T02:22:10;9.20;;;7.03;;
7971;SDS011;4031;49.758;6.120;2023-04-24T02:24:36;9.73;;;7.30;;
7971;SDS011;4031;49.758;6.120;2023-04-24T02:27:02;10.60;;;7.30;;
7971;SDS011;4031;49.758;6.120;2023-04-24T02:29:28;8.60;;;7.00;;
7971;SDS011;4031;49.758;6.120;2023-04-24T02:31:54;9.77;;;7.43;;
7971;SDS011;4031;49.758;6.120;2023-04-24T02:34:19;8.00;;;6.50;;
7971;SDS011;4031;49.758;6.120;2023-04-24T02:36:45;7.80;;;6.53;;
7971;SDS011;4031;49.758;6.120;2023-04-24T02:39:11;9.33;;;8.17;;
7971;SDS011;4031;49.758;6.120;2023-04-24T02:41:38;10.17;;;7.47;;
7971;SDS011;4031;49.758;6.120;2023-04-24T02:44:03;8.23;;;7.43;;
7971;SDS011;4031;49.758;6.120;2023-04-24T02:46:29;11.23;;;7.10;;
7971;SDS011;4031;49.758;6.120;2023-04-24T02:48:55;9.87;;;7.70;;
7971;SDS011;4031;49.758;6.120;2023-04-24T02:51:21;9.10;;;7.17;;
7971;SDS011;4031;49.758;6.120;2023-04-24T02:53:46;10.23;;;7.63;;
7971;SDS011;4031;49.758;6.120;2023-04-24T02:56:12;9.07;;;6.70;;
7971;SDS011;4031;49.758;6.120;2023-04-24T02:58:38;12.53;;;8.40;;
7971;SDS011;4031;49.758;6.120;2023-04-24T03:01:03;8.87;;;6.20;;
7971;SDS011;4031;49.758;6.120;2023-04-24T03:03:30;9.13;;;7.70;;
7971;SDS011;4031;49.758;6.120;2023-04-24T03:05:56;11.80;;;8.07;;
7971;SDS011;4031;49.758;6.120;2023-04-24T03:08:22;12.77;;;8.73;;
7971;SDS011;4031;49.758;6.120;2023-04-24T03:10:48;12.67;;;8.53;;
7971;SDS011;4031;49.758;6.120;2023-04-24T03:13:15;13.83;;;7.40;;
7971;SDS011;4031;49.758;6.120;2023-04-24T03:15:41;11.50;;;8.43;;
7971;SDS011;4031;49.758;6.120;2023-04-24T03:18:07;15.00;;;8.87;;
7971;SDS011;4031;49.758;6.120;2023-04-24T03:20:33;11.83;;;7.90;;
7971;SDS011;4031;49.758;6.120;2023-04-24T03:22:58;11.20;;;8.57;;
7971;SDS011;4031;49.758;6.120;2023-04-24T03:25:24;9.20;;;6.90;;
7971;SDS011;4031;49.758;6.120;2023-04-24T03:27:50;10.93;;;8.20;;
7971;SDS011;4031;49.758;6.120;2023-04-24T03:30:16;11.17;;;8.20;;
7971;SDS011;4031;49.758;6.120;2023-04-24T03:32:42;11.00;;;7.57;;
7971;SDS011;4031;49.758;6.120;2023-04-24T03:35:07;11.10;;;8.80;;
7971;SDS011;4031;49.758;6.120;2023-04-24T03:37:33;10.10;;;7.13;;
7971;SDS011;4031;49.758;6.120;2023-04-24T03:39:59;8.93;;;7.83;;
7971;SDS011;4031;49.758;6.120;2023-04-24T03:42:26;9.40;;;8.40;;
7971;SDS011;4031;49.758;6.120;2023-04-24T03:44:52;10.40;;;7.50;;
7971;SDS011;4031;49.758;6.120;2023-04-24T03:47:18;8.70;;;7.20;;
7971;SDS011;4031;49.758;6.120;2023-04-24T03:49:43;10.77;;;7.23;;
7971;SDS011;4031;49.758;6.120;2023-04-24T03:52:09;10.83;;;8.37;;
7971;SDS011;4031;49.758;6.120;2023-04-24T03:54:35;8.63;;;7.07;;
7971;SDS011;4031;49.758;6.120;2023-04-24T03:57:00;10.97;;;7.73;;
7971;SDS011;4031;49.758;6.120;2023-04-24T03:59:26;11.73;;;8.13;;
7971;SDS011;4031;49.758;6.120;2023-04-24T04:01:52;8.53;;;5.57;;
7971;SDS011;4031;49.758;6.120;2023-04-24T04:04:18;9.03;;;7.50;;
7971;SDS011;4031;49.758;6.120;2023-04-24T04:06:43;7.93;;;7.13;;
7971;SDS011;4031;49.758;6.120;2023-04-24T04:09:09;9.40;;;7.63;;
7971;SDS011;4031;49.758;6.120;2023-04-24T04:11:35;8.70;;;6.90;;
7971;SDS011;4031;49.758;6.120;2023-04-24T04:14:01;9.00;;;8.07;;
7971;SDS011;4031;49.758;6.120;2023-04-24T04:16:27;10.50;;;7.00;;
7971;SDS011;4031;49.758;6.120;2023-04-24T04:18:53;7.53;;;6.73;;
7971;SDS011;4031;49.758;6.120;2023-04-24T04:21:19;12.80;;;6.57;;
7971;SDS011;4031;49.758;6.120;2023-04-24T04:23:44;8.63;;;6.23;;
7971;SDS011;4031;49.758;6.120;2023-04-24T04:26:11;7.70;;;5.50;;
7971;SDS011;4031;49.758;6.120;2023-04-24T04:28:37;6.93;;;6.03;;
7971;SDS011;4031;49.758;6.120;2023-04-24T04:31:04;10.37;;;6.10;;
7971;SDS011;4031;49.758;6.120;2023-04-24T04:33:30;6.33;;;5.20;;
7971;SDS011;4031;49.758;6.120;2023-04-24T04:35:56;7.47;;;5.83;;
7971;SDS011;4031;49.758;6.120;2023-04-24T04:38:22;6.53;;;5.50;;
7971;SDS011;4031;49.758;6.120;2023-04-24T04:40:48;7.33;;;6.27;;
7971;SDS011;4031;49.758;6.120;2023-04-24T04:43:14;8.10;;;6.23;;
7971;SDS011;4031;49.758;6.120;2023-04-24T04:45:40;7.13;;;5.60;;
7971;SDS011;4031;49.758;6.120;2023-04-24T04:48:08;7.47;;;6.20;;
7971;SDS011;4031;49.758;6.120;2023-04-24T04:50:34;5.93;;;4.70;;
7971;SDS011;4031;49.758;6.120;2023-04-24T04:53:00;6.90;;;5.60;;
7971;SDS011;4031;49.758;6.120;2023-04-24T04:55:26;4.47;;;3.87;;
7971;SDS011;4031;49.758;6.120;2023-04-24T04:57:52;6.70;;;5.63;;
7971;SDS011;4031;49.758;6.120;2023-04-24T05:00:18;6.63;;;4.93;;
7971;SDS011;4031;49.758;6.120;2023-04-24T05:02:44;8.60;;;6.17;;
7971;SDS011;4031;49.758;6.120;2023-04-24T05:05:09;5.87;;;5.07;;
7971;SDS011;4031;49.758;6.120;2023-04-24T05:07:35;9.47;;;5.10;;
7971;SDS011;4031;49.758;6.120;2023-04-24T05:10:01;6.03;;;5.37;;
7971;SDS011;4031;49.758;6.120;2023-04-24T05:12:28;6.40;;;5.50;;
7971;SDS011;4031;49.758;6.120;2023-04-24T05:14:53;7.10;;;5.80;;
7971;SDS011;4031;49.758;6.120;2023-04-24T05:17:19;5.77;;;5.17;;
7971;SDS011;4031;49.758;6.120;2023-04-24T05:19:45;4.70;;;4.23;;
7971;SDS011;4031;49.758;6.120;2023-04-24T05:22:11;7.97;;;6.07;;
7971;SDS011;4031;49.758;6.120;2023-04-24T05:24:37;7.70;;;4.80;;
7971;SDS011;4031;49.758;6.120;2023-04-24T05:27:03;7.50;;;5.63;;
7971;SDS011;4031;49.758;6.120;2023-04-24T05:29:32;7.63;;;5.93;;
7971;SDS011;4031;49.758;6.120;2023-04-24T05:31:58;5.93;;;5.33;;
7971;SDS011;4031;49.758;6.120;2023-04-24T05:34:25;7.37;;;5.60;;
7971;SDS011;4031;49.758;6.120;2023-04-24T05:36:51;5.80;;;4.70;;
7971;SDS011;4031;49.758;6.120;2023-04-24T05:39:17;7.23;;;5.50;;
7971;SDS011;4031;49.758;6.120;2023-04-24T05:41:43;5.67;;;5.13;;
7971;SDS011;4031;49.758;6.120;2023-04-24T05:44:09;5.27;;;4.70;;
7971;SDS011;4031;49.758;6.120;2023-04-24T05:46:34;8.00;;;5.20;;
7971;SDS011;4031;49.758;6.120;2023-04-24T05:49:00;7.60;;;5.33;;
7971;SDS011;4031;49.758;6.120;2023-04-24T05:51:27;6.70;;;5.43;;
7971;SDS011;4031;49.758;6.120;2023-04-24T05:53:53;6.10;;;5.50;;
7971;SDS011;4031;49.758;6.120;2023-04-24T05:56:19;7.67;;;5.30;;
7971;SDS011;4031;49.758;6.120;2023-04-24T05:58:45;7.20;;;5.77;;
7971;SDS011;4031;49.758;6.120;2023-04-24T06:01:11;8.83;;;6.77;;
7971;SDS011;4031;49.758;6.120;2023-04-24T06:03:39;7.50;;;6.00;;
7971;SDS011;4031;49.758;6.120;2023-04-24T06:06:06;7.53;;;5.73;;
7971;SDS011;4031;49.758;6.120;2023-04-24T06:08:32;7.37;;;5.10;;
7971;SDS011;4031;49.758;6.120;2023-04-24T06:10:58;8.97;;;6.77;;
7971;SDS011;4031;49.758;6.120;2023-04-24T06:13:24;7.30;;;5.87;;
7971;SDS011;4031;49.758;6.120;2023-04-24T06:15:50;10.33;;;7.03;;
7971;SDS011;4031;49.758;6.120;2023-04-24T06:18:16;6.83;;;5.60;;
7971;SDS011;4031;49.758;6.120;2023-04-24T06:20:42;8.00;;;5.57;;
7971;SDS011;4031;49.758;6.120;2023-04-24T06:23:07;7.17;;;6.03;;
7971;SDS011;4031;49.758;6.120;2023-04-24T06:25:33;6.30;;;4.73;;
7971;SDS011;4031;49.758;6.120;2023-04-24T06:27:59;8.33;;;5.70;;
7971;SDS011;4031;49.758;6.120;2023-04-24T06:30:25;6.70;;;6.03;;
7971;SDS011;4031;49.758;6.120;2023-04-24T06:32:52;6.53;;;5.30;;
7971;SDS011;4031;49.758;6.120;2023-04-24T06:35:18;8.10;;;6.80;;
7971;SDS011;4031;49.758;6.120;2023-04-24T06:37:44;4.97;;;4.40;;
7971;SDS011;4031;49.758;6.120;2023-04-24T06:40:10;4.43;;;4.00;;
7971;SDS011;4031;49.758;6.120;2023-04-24T06:42:36;8.07;;;5.03;;
7971;SDS011;4031;49.758;6.120;2023-04-24T06:45:02;6.20;;;5.40;;
7971;SDS011;4031;49.758;6.120;2023-04-24T06:47:30;8.57;;;6.00;;
7971;SDS011;4031;49.758;6.120;2023-04-24T06:49:55;8.43;;;5.83;;
7971;SDS011;4031;49.758;6.120;2023-04-24T06:52:22;7.40;;;5.10;;
7971;SDS011;4031;49.758;6.120;2023-04-24T06:54:47;5.30;;;3.93;;
7971;SDS011;4031;49.758;6.120;2023-04-24T06:57:13;4.63;;;4.13;;
7971;SDS011;4031;49.758;6.120;2023-04-24T06:59:40;6.53;;;5.10;;
7971;SDS011;4031;49.758;6.120;2023-04-24T07:02:07;7.40;;;5.90;;
7971;SDS011;4031;49.758;6.120;2023-04-24T07:04:32;8.20;;;5.50;;
7971;SDS011;4031;49.758;6.120;2023-04-24T07:06:58;7.23;;;5.07;;
7971;SDS011;4031;49.758;6.120;2023-04-24T07:09:24;5.50;;;5.03;;
7971;SDS011;4031;49.758;6.120;2023-04-24T07:11:51;6.70;;;5.73;;
7971;SDS011;4031;49.758;6.120;2023-04-24T07:14:18;7.13;;;5.77;;
7971;SDS011;4031;49.758;6.120;2023-04-24T07:16:45;13.40;;;5.10;;
7971;SDS011;4031;49.758;6.120;2023-04-24T07:19:11;7.80;;;6.30;;
7971;SDS011;4031;49.758;6.120;2023-04-24T07:21:38;6.47;;;4.97;;
7971;SDS011;4031;49.758;6.120;2023-04-24T07:24:04;6.50;;;4.53;;
7971;SDS011;4031;49.758;6.120;2023-04-24T07:26:30;3.83;;;3.53;;
7971;SDS011;4031;49.758;6.120;2023-04-24T07:28:56;5.87;;;5.23;;
7971;SDS011;4031;49.758;6.120;2023-04-24T07:31:22;6.63;;;5.40;;
7971;SDS011;4031;49.758;6.120;2023-04-24T07:33:48;6.73;;;5.03;;
7971;SDS011;4031;49.758;6.120;2023-04-24T07:36:14;7.53;;;5.77;;
7971;SDS011;4031;49.758;6.120;2023-04-24T07:38:43;7.20;;;5.17;;
7971;SDS011;4031;49.758;6.120;2023-04-24T07:41:10;7.73;;;5.80;;
7971;SDS011;4031;49.758;6.120;2023-04-24T07:43:40;8.00;;;5.40;;
7971;SDS011;4031;49.758;6.120;2023-04-24T07:46:07;6.07;;;5.10;;
7971;SDS011;4031;49.758;6.120;2023-04-24T07:48:35;6.13;;;3.73;;
7971;SDS011;4031;49.758;6.120;2023-04-24T07:51:01;6.47;;;5.40;;
7971;SDS011;4031;49.758;6.120;2023-04-24T07:53:27;6.63;;;5.63;;
7971;SDS011;4031;49.758;6.120;2023-04-24T07:55:54;5.73;;;5.10;;
7971;SDS011;4031;49.758;6.120;2023-04-24T07:58:20;6.77;;;5.50;;
7971;SDS011;4031;49.758;6.120;2023-04-24T08:00:46;8.40;;;5.20;;
7971;SDS011;4031;49.758;6.120;2023-04-24T08:03:12;5.07;;;4.33;;
7971;SDS011;4031;49.758;6.120;2023-04-24T08:05:38;6.73;;;5.27;;
7971;SDS011;4031;49.758;6.120;2023-04-24T08:08:04;10.07;;;5.57;;
7971;SDS011;4031;49.758;6.120;2023-04-24T08:10:30;7.53;;;5.27;;
7971;SDS011;4031;49.758;6.120;2023-04-24T08:12:55;8.23;;;6.17;;
7971;SDS011;4031;49.758;6.120;2023-04-24T08:15:21;8.20;;;5.40;;
7971;SDS011;4031;49.758;6.120;2023-04-24T08:17:47;7.90;;;5.80;;
7971;SDS011;4031;49.758;6.120;2023-04-24T08:20:13;7.50;;;5.47;;
7971;SDS011;4031;49.758;6.120;2023-04-24T08:22:39;7.30;;;5.77;;
7971;SDS011;4031;49.758;6.120;2023-04-24T08:25:06;7.17;;;5.17;;
7971;SDS011;4031;49.758;6.120;2023-04-24T08:27:32;7.20;;;5.80;;
7971;SDS011;4031;49.758;6.120;2023-04-24T08:29:58;7.30;;;5.30;;
7971;SDS011;4031;49.758;6.120;2023-04-24T08:32:24;8.80;;;6.40;;
7971;SDS011;4031;49.758;6.120;2023-04-24T08:34:53;4.60;;;3.60;;
7971;SDS011;4031;49.758;6.120;2023-04-24T08:37:21;11.00;;;6.27;;
7971;SDS011;4031;49.758;6.120;2023-04-24T08:39:47;7.97;;;6.77;;
7971;SDS011;4031;49.758;6.120;2023-04-24T08:42:14;8.87;;;5.97;;
7971;SDS011;4031;49.758;6.120;2023-04-24T08:44:42;4.93;;;4.20;;
7971;SDS011;4031;49.758;6.120;2023-04-24T08:47:08;9.27;;;7.67;;
7971;SDS011;4031;49.758;6.120;2023-04-24T08:49:34;10.73;;;7.60;;
7971;SDS011;4031;49.758;6.120;2023-04-24T08:52:02;9.10;;;7.40;;
7971;SDS011;4031;49.758;6.120;2023-04-24T08:54:28;9.40;;;7.80;;
7971;SDS011;4031;49.758;6.120;2023-04-24T08:56:55;12.80;;;7.53;;
7971;SDS011;4031;49.758;6.120;2023-04-24T08:59:26;9.83;;;7.40;;
7971;SDS011;4031;49.758;6.120;2023-04-24T09:01:53;9.07;;;6.90;;
7971;SDS011;4031;49.758;6.120;2023-04-24T09:04:21;10.70;;;7.97;;
7971;SDS011;4031;49.758;6.120;2023-04-24T09:06:49;9.13;;;7.00;;
7971;SDS011;4031;49.758;6.120;2023-04-24T09:09:23;11.10;;;7.83;;
7971;SDS011;4031;49.758;6.120;2023-04-24T09:11:50;7.70;;;6.40;;
7971;SDS011;4031;49.758;6.120;2023-04-24T09:14:18;6.27;;;4.80;;
7971;SDS011;4031;49.758;6.120;2023-04-24T09:16:45;10.07;;;6.10;;
7971;SDS011;4031;49.758;6.120;2023-04-24T09:19:12;6.40;;;5.80;;
7971;SDS011;4031;49.758;6.120;2023-04-24T09:21:38;6.63;;;5.57;;
7971;SDS011;4031;49.758;6.120;2023-04-24T09:24:05;7.50;;;6.37;;
7971;SDS011;4031;49.758;6.120;2023-04-24T09:26:36;6.70;;;5.20;;
7971;SDS011;4031;49.758;6.120;2023-04-24T09:29:02;7.63;;;5.27;;
7971;SDS011;4031;49.758;6.120;2023-04-24T09:31:29;5.90;;;4.90;;
7971;SDS011;4031;49.758;6.120;2023-04-24T09:34:03;6.13;;;5.00;;
7971;SDS011;4031;49.758;6.120;2023-04-24T09:36:33;7.77;;;4.13;;
7971;SDS011;4031;49.758;6.120;2023-04-24T09:39:03;6.60;;;5.00;;
7971;SDS011;4031;49.758;6.120;2023-04-24T09:41:31;5.60;;;5.10;;
7971;SDS011;4031;49.758;6.120;2023-04-24T09:44:09;6.73;;;4.20;;
7971;SDS011;4031;49.758;6.120;2023-04-24T09:46:56;7.10;;;4.67;;
7971;SDS011;4031;49.758;6.120;2023-04-24T09:49:24;4.97;;;4.00;;
7971;SDS011;4031;49.758;6.120;2023-04-24T09:52:10;5.50;;;5.00;;
7971;SDS011;4031;49.758;6.120;2023-04-24T09:54:36;6.17;;;4.80;;
7971;SDS011;4031;49.758;6.120;2023-04-24T09:57:04;4.77;;;4.10;;
7971;SDS011;4031;49.758;6.120;2023-04-24T09:59:32;6.17;;;4.23;;
7971;SDS011;4031;49.758;6.120;2023-04-24T10:01:59;4.23;;;3.63;;
7971;SDS011;4031;49.758;6.120;2023-04-24T10:04:26;5.93;;;3.60;;
7971;SDS011;4031;49.758;6.120;2023-04-24T10:06:55;5.23;;;3.50;;
7971;SDS011;4031;49.758;6.120;2023-04-24T10:09:22;6.57;;;3.33;;
7971;SDS011;4031;49.758;6.120;2023-04-24T10:11:51;3.87;;;3.57;;
7971;SDS011;4031;49.758;6.120;2023-04-24T10:14:20;4.50;;;4.10;;
7971;SDS011;4031;49.758;6.120;2023-04-24T10:16:48;6.63;;;3.23;;
7971;SDS011;4031;49.758;6.120;2023-04-24T10:19:16;4.53;;;4.00;;
7971;SDS011;4031;49.758;6.120;2023-04-24T10:21:45;4.03;;;3.40;;
7971;SDS011;4031;49.758;6.120;2023-04-24T10:24:12;4.80;;;3.57;;
7971;SDS011;4031;49.758;6.120;2023-04-24T10:26:40;6.37;;;3.97;;
7971;SDS011;4031;49.758;6.120;2023-04-24T10:29:07;4.20;;;3.80;;
7971;SDS011;4031;49.758;6.120;2023-04-24T10:31:37;3.90;;;3.60;;
7971;SDS011;4031;49.758;6.120;2023-04-24T10:34:04;4.30;;;3.90;;
7971;SDS011;4031;49.758;6.120;2023-04-24T10:36:31;4.13;;;3.73;;
7971;SDS011;4031;49.758;6.120;2023-04-24T10:39:05;4.57;;;3.67;;
7971;SDS011;4031;49.758;6.120;2023-04-24T10:41:37;5.10;;;4.67;;
7971;SDS011;4031;49.758;6.120;2023-04-24T10:44:06;5.30;;;4.20;;
7971;SDS011;4031;49.758;6.120;2023-04-24T10:46:34;6.17;;;4.60;;
7971;SDS011;4031;49.758;6.120;2023-04-24T10:49:04;4.93;;;4.10;;
7971;SDS011;4031;49.758;6.120;2023-04-24T10:51:47;4.47;;;3.73;;
7971;SDS011;4031;49.758;6.120;2023-04-24T10:59:43;5.20;;;4.40;;
7971;SDS011;4031;49.758;6.120;2023-04-24T11:02:09;4.50;;;4.10;;
7971;SDS011;4031;49.758;6.120;2023-04-24T11:04:35;5.03;;;4.30;;
7971;SDS011;4031;49.758;6.120;2023-04-24T11:07:02;4.20;;;3.80;;
7971;SDS011;4031;49.758;6.120;2023-04-24T11:09:32;5.33;;;4.80;;
7971;SDS011;4031;49.758;6.120;2023-04-24T11:12:03;7.20;;;4.97;;
7971;SDS011;4031;49.758;6.120;2023-04-24T11:17:33;6.27;;;5.67;;
7971;SDS011;4031;49.758;6.120;2023-04-24T11:20:05;7.53;;;5.33;;
7971;SDS011;4031;49.758;6.120;2023-04-24T11:22:42;6.13;;;5.30;;
7971;SDS011;4031;49.758;6.120;2023-04-24T11:25:08;8.47;;;5.90;;
7971;SDS011;4031;49.758;6.120;2023-04-24T11:27:43;7.80;;;5.40;;
7971;SDS011;4031;49.758;6.120;2023-04-24T11:30:16;8.50;;;5.60;;
7971;SDS011;4031;49.758;6.120;2023-04-24T11:32:47;8.40;;;5.90;;
7971;SDS011;4031;49.758;6.120;2023-04-24T11:35:19;7.63;;;5.63;;
7971;SDS011;4031;49.758;6.120;2023-04-24T11:37:50;7.03;;;5.00;;
7971;SDS011;4031;49.758;6.120;2023-04-24T11:40:20;5.73;;;5.10;;
7971;SDS011;4031;49.758;6.120;2023-04-24T11:42:51;5.83;;;4.97;;
7971;SDS011;4031;49.758;6.120;2023-04-24T11:45:24;9.13;;;5.97;;
7971;SDS011;4031;49.758;6.120;2023-04-24T11:47:52;4.90;;;4.40;;
7971;SDS011;4031;49.758;6.120;2023-04-24T11:50:19;9.67;;;5.67;;
7971;SDS011;4031;49.758;6.120;2023-04-24T11:52:48;7.70;;;6.93;;
7971;SDS011;4031;49.758;6.120;2023-04-24T11:57:47;6.90;;;5.53;;
7971;SDS011;4031;49.758;6.120;2023-04-24T12:00:22;6.53;;;4.93;;
7971;SDS011;4031;49.758;6.120;2023-04-24T12:02:50;6.03;;;5.20;;
7971;SDS011;4031;49.758;6.120;2023-04-24T12:05:25;5.67;;;5.17;;
7971;SDS011;4031;49.758;6.120;2023-04-24T12:07:52;5.93;;;4.50;;
7971;SDS011;4031;49.758;6.120;2023-04-24T12:10:19;5.67;;;5.13;;
7971;SDS011;4031;49.758;6.120;2023-04-24T12:12:46;5.90;;;5.17;;
7971;SDS011;4031;49.758;6.120;2023-04-24T12:15:15;5.43;;;4.93;;
7971;SDS011;4031;49.758;6.120;2023-04-24T12:17:42;6.17;;;5.50;;
7971;SDS011;4031;49.758;6.120;2023-04-24T12:20:08;6.93;;;4.60;;
7971;SDS011;4031;49.758;6.120;2023-04-24T12:22:44;6.50;;;5.90;;
7971;SDS011;4031;49.758;6.120;2023-04-24T12:25:16;5.97;;;4.70;;
7971;SDS011;4031;49.758;6.120;2023-04-24T12:27:44;7.13;;;5.13;;
7971;SDS011;4031;49.758;6.120;2023-04-24T12:30:12;5.47;;;4.97;;
7971;SDS011;4031;49.758;6.120;2023-04-24T12:32:41;6.93;;;5.33;;
7971;SDS011;4031;49.758;6.120;2023-04-24T12:35:11;6.70;;;5.50;;
7971;SDS011;4031;49.758;6.120;2023-04-24T12:37:37;7.10;;;5.20;;
7971;SDS011;4031;49.758;6.120;2023-04-24T12:40:08;6.10;;;5.43;;
7971;SDS011;4031;49.758;6.120;2023-04-24T12:42:35;5.40;;;4.63;;
7971;SDS011;4031;49.758;6.120;2023-04-24T12:45:08;4.17;;;3.77;;
7971;SDS011;4031;49.758;6.120;2023-04-24T12:47:34;5.37;;;4.23;;
7971;SDS011;4031;49.758;6.120;2023-04-24T12:50:01;4.53;;;4.13;;
7971;SDS011;4031;49.758;6.120;2023-04-24T12:52:27;4.80;;;4.40;;
7971;SDS011;4031;49.758;6.120;2023-04-24T12:54:55;7.70;;;4.50;;
7971;SDS011;4031;49.758;6.120;2023-04-24T12:57:23;4.90;;;4.50;;
7971;SDS011;4031;49.758;6.120;2023-04-24T12:59:53;6.80;;;5.27;;
7971;SDS011;4031;49.758;6.120;2023-04-24T13:02:21;4.80;;;4.37;;
7971;SDS011;4031;49.758;6.120;2023-04-24T13:04:47;5.10;;;4.70;;
7971;SDS011;4031;49.758;6.120;2023-04-24T13:07:14;4.90;;;4.40;;
7971;SDS011;4031;49.758;6.120;2023-04-24T13:09:41;5.73;;;4.07;;
7971;SDS011;4031;49.758;6.120;2023-04-24T13:12:08;5.10;;;4.60;;
7971;SDS011;4031;49.758;6.120;2023-04-24T13:14:34;4.50;;;4.10;;
7971;SDS011;4031;49.758;6.120;2023-04-24T13:17:01;4.50;;;3.70;;
7971;SDS011;4031;49.758;6.120;2023-04-24T13:19:27;4.30;;;3.90;;
7971;SDS011;4031;49.758;6.120;2023-04-24T13:21:55;4.07;;;3.67;;
7971;SDS011;4031;49.758;6.120;2023-04-24T13:24:22;6.37;;;3.63;;
7971;SDS011;4031;49.758;6.120;2023-04-24T13:26:54;4.53;;;4.13;;
7971;SDS011;4031;49.758;6.120;2023-04-24T13:29:21;4.83;;;4.33;;
7971;SDS011;4031;49.758;6.120;2023-04-24T13:31:49;4.13;;;3.60;;
7971;SDS011;4031;49.758;6.120;2023-04-24T13:34:17;4.43;;;4.03;;
7971;SDS011;4031;49.758;6.120;2023-04-24T13:36:43;5.60;;;4.10;;
7971;SDS011;4031;49.758;6.120;2023-04-24T13:39:09;4.13;;;3.50;;
7971;SDS011;4031;49.758;6.120;2023-04-24T13:41:35;4.60;;;3.77;;
7971;SDS011;4031;49.758;6.120;2023-04-24T13:44:01;5.30;;;4.80;;
7971;SDS011;4031;49.758;6.120;2023-04-24T13:46:28;5.03;;;4.53;;
7971;SDS011;4031;49.758;6.120;2023-04-24T13:48:54;5.70;;;5.20;;
7971;SDS011;4031;49.758;6.120;2023-04-24T13:51:20;8.97;;;5.10;;
7971;SDS011;4031;49.758;6.120;2023-04-24T13:53:45;6.03;;;4.93;;
7971;SDS011;4031;49.758;6.120;2023-04-24T13:56:11;5.40;;;4.73;;
7971;SDS011;4031;49.758;6.120;2023-04-24T13:58:38;7.53;;;5.43;;
7971;SDS011;4031;49.758;6.120;2023-04-24T14:01:04;4.97;;;4.47;;
7971;SDS011;4031;49.758;6.120;2023-04-24T14:03:30;8.17;;;6.00;;
7971;SDS011;4031;49.758;6.120;2023-04-24T14:05:56;8.60;;;7.10;;
7971;SDS011;4031;49.758;6.120;2023-04-24T14:08:22;9.30;;;6.80;;
7971;SDS011;4031;49.758;6.120;2023-04-24T14:10:48;7.80;;;6.57;;
7971;SDS011;4031;49.758;6.120;2023-04-24T14:13:15;7.87;;;5.80;;
7971;SDS011;4031;49.758;6.120;2023-04-24T14:15:41;9.83;;;6.23;;
7971;SDS011;4031;49.758;6.120;2023-04-24T14:18:07;6.50;;;5.90;;
7971;SDS011;4031;49.758;6.120;2023-04-24T14:20:32;7.60;;;5.90;;
7971;SDS011;4031;49.758;6.120;2023-04-24T14:22:58;7.00;;;5.33;;
7971;SDS011;4031;49.758;6.120;2023-04-24T14:25:24;5.93;;;4.97;;
7971;SDS011;4031;49.758;6.120;2023-04-24T14:27:50;5.33;;;4.63;;
7971;SDS011;4031;49.758;6.120;2023-04-24T14:30:16;5.50;;;4.80;;
7971;SDS011;4031;49.758;6.120;2023-04-24T14:32:43;6.80;;;5.03;;
7971;SDS011;4031;49.758;6.120;2023-04-24T14:35:08;4.70;;;4.30;;
7971;SDS011;4031;49.758;6.120;2023-04-24T14:37:34;4.00;;;3.53;;
7971;SDS011;4031;49.758;6.120;2023-04-24T14:40:01;3.97;;;3.33;;
7971;SDS011;4031;49.758;6.120;2023-04-24T14:42:27;3.83;;;3.33;;
7971;SDS011;4031;49.758;6.120;2023-04-24T14:44:53;3.47;;;2.70;;
7971;SDS011;4031;49.758;6.120;2023-04-24T14:47:20;3.57;;;3.20;;
7971;SDS011;4031;49.758;6.120;2023-04-24T14:49:48;3.43;;;3.23;;
7971;SDS011;4031;49.758;6.120;2023-04-24T14:52:14;3.97;;;3.43;;
7971;SDS011;4031;49.758;6.120;2023-04-24T14:54:40;3.03;;;2.83;;
7971;SDS011;4031;49.758;6.120;2023-04-24T14:57:07;3.23;;;2.47;;
7971;SDS011;4031;49.758;6.120;2023-04-24T14:59:33;4.20;;;2.43;;
7971;SDS011;4031;49.758;6.120;2023-04-24T15:01:59;2.70;;;2.50;;
7971;SDS011;4031;49.758;6.120;2023-04-24T15:04:24;2.50;;;2.30;;
7971;SDS011;4031;49.758;6.120;2023-04-24T15:06:50;4.10;;;2.63;;
7971;SDS011;4031;49.758;6.120;2023-04-24T15:09:18;4.20;;;3.20;;
7971;SDS011;4031;49.758;6.120;2023-04-24T15:11:45;4.77;;;3.00;;
7971;SDS011;4031;49.758;6.120;2023-04-24T15:14:11;3.07;;;2.77;;
7971;SDS011;4031;49.758;6.120;2023-04-24T15:16:37;2.63;;;2.30;;
7971;SDS011;4031;49.758;6.120;2023-04-24T15:19:03;2.33;;;2.13;;
7971;SDS011;4031;49.758;6.120;2023-04-24T15:21:29;3.10;;;2.80;;
7971;SDS011;4031;49.758;6.120;2023-04-24T15:23:55;2.47;;;2.23;;